Time;durP1;ratioP1;P1;durP2;ratioP2;P2;SDS_P1;SDS_P2;PMS_P1;PMS_P2;Temp;Humidity;BMP_temperature;BMP_pressure;BME280_temperature;BME280_humidity;BME280_pressure;Samples;Min_cycle;Max_cycle;Signal;HPM_P1;HPM_P2
2022/10/05 00:01:38;;;;;;;10.73;3.70;;;11.20;99.90;;;;;;5269093;28;20439;-49
2022/10/05 00:04:18;;;;;;;3.33;3.13;;;11.20;99.90;;;;;;5270558;28;20189;-50
2022/10/05 00:07:28;;;;;;;5.07;3.33;;;11.30;99.90;;;;;;5253016;28;20827;-49
2022/10/05 00:09:59;;;;;;;7.17;2.97;;;11.20;99.90;;;;;;5259400;28;20459;-50
2022/10/05 00:12:29;;;;;;;7.00;3.67;;;11.20;99.90;;;;;;5238187;28;20439;-49
2022/10/05 00:15:00;;;;;;;4.63;3.03;;;11.20;99.90;;;;;;5268803;28;20591;-49
2022/10/05 00:17:31;;;;;;;3.73;3.40;;;11.30;99.90;;;;;;5269090;28;20211;-48
2022/10/05 00:20:20;;;;;;;3.77;3.13;;;11.40;99.90;;;;;;5266195;28;20229;-50
2022/10/05 00:22:56;;;;;;;8.63;3.87;;;11.30;99.90;;;;;;5264364;28;20561;-51
2022/10/05 00:25:27;;;;;;;3.97;3.50;;;11.30;99.90;;;;;;5249909;28;21092;-49
2022/10/05 00:27:59;;;;;;;6.73;3.23;;;11.10;99.90;;;;;;5264072;28;20424;-49
2022/10/05 00:30:33;;;;;;;7.10;3.10;;;11.10;99.90;;;;;;5262924;28;20281;-49
2022/10/05 00:33:03;;;;;;;3.97;2.90;;;11.10;99.90;;;;;;5265530;28;20462;-50
2022/10/05 00:35:35;;;;;;;11.27;2.80;;;11.40;99.90;;;;;;5248376;28;20467;-49
2022/10/05 00:38:05;;;;;;;6.20;3.83;;;11.10;99.90;;;;;;5263494;28;20201;-49
2022/10/05 00:40:39;;;;;;;3.53;3.23;;;11.20;99.90;;;;;;5259343;28;20533;-50
2022/10/05 00:43:43;;;;;;;3.13;2.80;;;11.30;99.90;;;;;;5242494;28;20213;-49
2022/10/05 00:46:22;;;;;;;8.93;2.70;;;11.10;99.90;;;;;;5259633;28;20455;-50
2022/10/05 00:49:01;;;;;;;5.27;3.23;;;11.10;99.90;;;;;;5267483;28;20493;-49
2022/10/05 00:51:36;;;;;;;6.30;3.70;;;11.20;99.90;;;;;;5264836;28;20805;-49
2022/10/05 00:54:46;;;;;;;7.70;3.53;;;11.30;99.90;;;;;;5261226;28;20953;-49
2022/10/05 00:57:36;;;;;;;9.30;3.03;;;11.30;99.90;;;;;;5216533;28;20440;-48
2022/10/05 01:00:11;;;;;;;3.80;3.43;;;11.20;99.90;;;;;;5251145;28;20538;-49
2022/10/05 01:03:12;;;;;;;7.60;3.57;;;11.30;99.90;;;;;;5252297;28;20491;-49
2022/10/05 01:06:10;;;;;;;4.33;3.10;;;11.60;99.90;;;;;;5232914;28;20456;-48
2022/10/05 01:08:56;;;;;;;5.07;2.93;;;11.70;99.90;;;;;;5251994;28;20424;-49
2022/10/05 01:11:30;;;;;;;3.60;3.30;;;11.40;99.90;;;;;;5261894;28;20962;-49
2022/10/05 01:14:20;;;;;;;3.50;3.30;;;11.20;99.90;;;;;;5261293;28;20436;-48
2022/10/05 01:17:05;;;;;;;5.97;3.00;;;11.20;99.90;;;;;;5248501;28;20482;-49
2022/10/05 01:19:50;;;;;;;4.10;2.60;;;11.10;99.90;;;;;;5232204;28;20514;-50
2022/10/05 01:22:45;;;;;;;4.33;3.43;;;11.10;99.90;;;;;;5269554;28;20451;-49
2022/10/05 01:25:20;;;;;;;7.90;3.07;;;11.10;99.90;;;;;;5259552;28;20419;-50
2022/10/05 01:28:04;;;;;;;3.67;2.67;;;11.10;99.90;;;;;;5267883;28;20453;-49
2022/10/05 01:30:44;;;;;;;12.47;4.27;;;11.10;99.90;;;;;;5262160;28;20822;-48
2022/10/05 01:33:28;;;;;;;7.50;3.07;;;11.30;99.90;;;;;;5242549;28;20422;-50
2022/10/05 01:36:11;;;;;;;4.47;3.07;;;11.30;99.90;;;;;;5259282;28;20432;-50
2022/10/05 01:38:48;;;;;;;3.53;3.00;;;11.10;99.90;;;;;;5253453;28;20428;-48
2022/10/05 01:41:35;;;;;;;5.13;2.80;;;11.00;99.90;;;;;;5253071;28;20502;-50
2022/10/05 01:44:12;;;;;;;3.17;2.87;;;11.10;99.90;;;;;;5268789;28;20477;-50
2022/10/05 01:46:55;;;;;;;3.37;2.90;;;11.00;99.90;;;;;;5271144;28;20459;-50
2022/10/05 01:49:55;;;;;;;3.60;3.30;;;11.10;99.90;;;;;;5249350;28;20427;-50
2022/10/05 01:52:48;;;;;;;3.60;2.80;;;11.10;99.90;;;;;;5250404;28;20439;-51
2022/10/05 01:55:34;;;;;;;6.83;2.90;;;11.00;99.90;;;;;;5262928;28;20438;-49
2022/10/05 01:58:46;;;;;;;4.03;3.57;;;11.10;99.90;;;;;;5261092;28;20485;-50
2022/10/05 02:01:46;;;;;;;2.70;2.60;;;11.00;99.90;;;;;;5262553;28;20551;-49
2022/10/05 02:04:22;;;;;;;2.83;2.63;;;10.70;99.90;;;;;;5261566;28;20786;-48
2022/10/05 02:06:53;;;;;;;3.57;3.10;;;10.60;99.90;;;;;;5259077;28;20874;-49
2022/10/05 02:09:32;;;;;;;2.80;2.60;;;10.50;99.90;;;;;;5259317;28;20428;-49
2022/10/05 02:12:10;;;;;;;9.23;3.40;;;10.60;99.90;;;;;;5267104;28;20545;-49
2022/10/05 02:14:48;;;;;;;7.37;3.30;;;10.50;99.90;;;;;;5261790;28;20942;-50
2022/10/05 02:17:24;;;;;;;4.47;2.60;;;10.40;99.90;;;;;;5261502;28;20524;-49
2022/10/05 02:20:04;;;;;;;4.10;3.17;;;10.40;99.90;;;;;;5255262;28;20463;-50
2022/10/05 02:22:41;;;;;;;3.70;3.40;;;10.40;99.90;;;;;;5260196;28;20577;-50
2022/10/05 02:25:18;;;;;;;5.03;3.13;;;10.40;99.90;;;;;;5246169;28;20790;-52
2022/10/05 02:27:55;;;;;;;5.70;3.10;;;10.30;99.90;;;;;;5241095;28;20927;-49
2022/10/05 02:30:28;;;;;;;3.20;3.00;;;10.30;99.90;;;;;;5256917;28;20455;-50
2022/10/05 02:33:09;;;;;;;3.13;2.93;;;10.20;99.90;;;;;;5247903;28;20790;-50
2022/10/05 02:35:40;;;;;;;5.30;3.80;;;10.20;99.90;;;;;;5256182;28;20962;-50
2022/10/05 02:38:32;;;;;;;3.67;3.20;;;10.20;99.90;;;;;;5230205;28;20464;-50
2022/10/05 02:41:22;;;;;;;2.90;2.70;;;10.20;99.90;;;;;;5248631;28;20341;-50
2022/10/05 02:44:41;;;;;;;3.47;3.17;;;10.20;99.90;;;;;;5249575;28;20451;-50
2022/10/05 02:47:18;;;;;;;7.90;3.00;;;10.20;99.90;;;;;;5202463;28;20508;-50
2022/10/05 02:50:11;;;;;;;3.10;3.00;;;10.20;99.90;;;;;;5251104;28;20794;-50
2022/10/05 02:52:56;;;;;;;2.93;2.73;;;10.10;99.90;;;;;;5251376;28;20439;-51
2022/10/05 02:55:50;;;;;;;4.10;3.13;;;10.10;99.90;;;;;;5241849;28;20415;-49
2022/10/05 02:58:30;;;;;;;9.33;3.50;;;10.20;99.90;;;;;;5263207;28;20412;-48
2022/10/05 03:01:26;;;;;;;6.30;4.37;;;10.20;99.90;;;;;;5262882;28;20459;-50
2022/10/05 03:04:06;;;;;;;3.40;3.20;;;10.20;99.90;;;;;;5266511;28;21019;-49
2022/10/05 03:06:57;;;;;;;21.20;3.73;;;10.20;99.90;;;;;;5259476;28;20459;-49
2022/10/05 03:09:34;;;;;;;8.60;3.43;;;10.30;99.90;;;;;;5244272;28;20436;-50
2022/10/05 03:12:31;;;;;;;3.17;2.87;;;10.60;99.90;;;;;;5262029;28;20440;-49
2022/10/05 03:15:37;;;;;;;13.10;3.47;;;10.50;99.90;;;;;;5235209;28;20424;-47
2022/10/05 03:18:49;;;;;;;4.40;3.50;;;10.50;99.90;;;;;;5142624;28;20450;-49
2022/10/05 03:21:28;;;;;;;4.20;3.93;;;10.70;99.90;;;;;;5251248;28;20450;-49
2022/10/05 03:24:22;;;;;;;3.50;3.20;;;10.70;99.90;;;;;;5270201;28;20427;-50
2022/10/05 03:27:08;;;;;;;6.10;3.33;;;10.90;99.90;;;;;;5252505;28;20460;-49
2022/10/05 03:29:51;;;;;;;7.13;3.27;;;11.00;99.90;;;;;;5268243;28;20435;-49
2022/10/05 03:32:31;;;;;;;8.20;2.70;;;11.10;99.90;;;;;;5244756;28;20428;-48
2022/10/05 03:35:22;;;;;;;4.50;3.40;;;11.10;99.90;;;;;;5258430;28;20408;-50
2022/10/05 03:38:05;;;;;;;5.60;2.90;;;11.30;99.90;;;;;;5268180;28;20439;-50
2022/10/05 03:40:50;;;;;;;3.53;2.80;;;11.20;99.90;;;;;;5293369;22;20528;-48
2022/10/05 03:43:39;;;;;;;4.07;3.23;;;11.10;99.90;;;;;;5263399;28;20426;-49
2022/10/05 03:46:29;;;;;;;4.13;2.60;;;11.30;99.90;;;;;;5292041;28;20878;-49
2022/10/05 03:49:32;;;;;;;4.77;3.00;;;11.20;99.90;;;;;;5291707;28;20466;-48
2022/10/05 03:52:14;;;;;;;8.93;4.13;;;11.10;99.90;;;;;;5274380;27;20856;-50
2022/10/05 03:54:49;;;;;;;5.77;2.43;;;11.10;99.90;;;;;;5291699;28;20426;-49
2022/10/05 03:57:26;;;;;;;3.60;3.20;;;11.30;99.90;;;;;;5272889;27;20519;-49
2022/10/05 04:00:12;;;;;;;5.93;2.77;;;11.40;99.90;;;;;;5265302;28;20797;-50
2022/10/05 04:02:54;;;;;;;6.47;3.63;;;11.30;99.90;;;;;;5274679;28;20497;-49
2022/10/05 04:05:47;;;;;;;3.10;2.57;;;11.40;99.90;;;;;;5287338;28;20493;-50
2022/10/05 04:08:32;;;;;;;2.97;2.77;;;11.30;99.90;;;;;;5286492;28;20478;-49
2022/10/05 04:11:20;;;;;;;4.40;3.20;;;11.30;99.90;;;;;;5277942;27;20427;-49
2022/10/05 04:14:04;;;;;;;3.03;2.60;;;11.30;99.90;;;;;;5266646;28;20513;-50
2022/10/05 04:16:42;;;;;;;3.07;2.77;;;11.30;99.90;;;;;;5271227;28;20404;-48
2022/10/05 04:19:37;;;;;;;3.57;2.90;;;11.30;99.90;;;;;;5254342;28;20496;-49
2022/10/05 04:22:20;;;;;;;3.40;2.90;;;11.10;99.90;;;;;;5274278;27;20462;-51
2022/10/05 04:25:15;;;;;;;2.60;2.30;;;11.30;99.90;;;;;;5285689;28;20520;-51
2022/10/05 04:27:53;;;;;;;2.53;2.33;;;11.30;99.90;;;;;;5272477;28;20458;-48
2022/10/05 04:30:24;;;;;;;3.70;3.10;;;11.10;99.90;;;;;;5259943;28;20539;-48
2022/10/05 04:32:56;;;;;;;3.80;3.20;;;11.40;99.90;;;;;;5268303;28;21033;-48
2022/10/05 04:36:00;;;;;;;2.40;2.23;;;11.40;99.90;;;;;;5278763;28;20208;-47
2022/10/05 04:38:39;;;;;;;2.63;2.30;;;11.30;99.90;;;;;;5271246;27;20764;-48
2022/10/05 04:41:28;;;;;;;3.50;2.50;;;11.20;99.90;;;;;;5261824;28;20523;-49
2022/10/05 04:44:01;;;;;;;3.60;2.60;;;11.30;99.90;;;;;;5267758;28;20787;-48
2022/10/05 04:46:54;;;;;;;3.30;3.07;;;11.20;99.90;;;;;;5281961;28;20547;-49
2022/10/05 04:49:30;;;;;;;2.77;2.57;;;11.20;99.90;;;;;;5265643;28;20504;-48
2022/10/05 04:52:18;;;;;;;2.20;2.10;;;11.00;99.90;;;;;;5253997;28;20450;-48
2022/10/05 04:55:14;;;;;;;7.23;3.10;;;10.90;99.90;;;;;;5272367;28;20488;-49
2022/10/05 04:58:09;;;;;;;2.60;2.50;;;10.90;99.90;;;;;;5277922;27;20990;-49
2022/10/05 05:01:01;;;;;;;5.13;3.00;;;11.00;99.90;;;;;;5282765;28;20453;-48
2022/10/05 05:03:51;;;;;;;3.07;2.83;;;11.20;99.90;;;;;;5282679;27;20496;-48
2022/10/05 05:06:31;;;;;;;3.40;3.10;;;11.10;99.90;;;;;;5255798;28;20497;-50
2022/10/05 05:09:46;;;;;;;3.70;3.40;;;11.20;99.90;;;;;;5281128;27;20444;-49
2022/10/05 05:12:35;;;;;;;3.37;3.10;;;11.30;99.90;;;;;;5257666;28;21116;-49
2022/10/05 05:15:24;;;;;;;5.60;4.10;;;11.20;99.90;;;;;;5283165;28;20423;-50
2022/10/05 05:18:21;;;;;;;4.13;3.07;;;11.30;99.90;;;;;;5255539;28;20456;-49
2022/10/05 05:21:04;;;;;;;6.70;4.03;;;11.10;99.90;;;;;;5283830;28;20966;-48
2022/10/05 05:23:45;;;;;;;2.73;2.53;;;11.10;99.90;;;;;;5286996;27;20422;-49
2022/10/05 05:26:26;;;;;;;5.90;3.37;;;11.00;99.90;;;;;;5289518;28;20458;-49
2022/10/05 05:29:26;;;;;;;4.23;2.83;;;10.90;99.90;;;;;;5289448;28;20418;-49
2022/10/05 05:32:18;;;;;;;8.90;3.17;;;10.90;99.90;;;;;;5269155;28;20451;-49
2022/10/05 05:35:13;;;;;;;7.40;3.23;;;11.20;99.90;;;;;;5269629;28;20755;-48
2022/10/05 05:37:53;;;;;;;4.50;3.77;;;11.30;99.90;;;;;;5289671;28;20445;-48
2022/10/05 05:40:29;;;;;;;7.20;3.00;;;11.50;99.90;;;;;;5286342;28;20458;-49
2022/10/05 05:43:15;;;;;;;7.60;2.90;;;11.60;99.90;;;;;;5288293;28;20940;-49
2022/10/05 05:45:57;;;;;;;3.93;2.80;;;11.60;99.90;;;;;;5268043;28;20998;-49
2022/10/05 05:48:37;;;;;;;4.07;3.73;;;11.70;99.90;;;;;;5285926;28;20428;-49
2022/10/05 05:51:18;;;;;;;8.93;3.73;;;11.60;99.90;;;;;;5266538;28;20451;-49
2022/10/05 05:53:53;;;;;;;9.00;3.70;;;11.60;99.90;;;;;;5284820;27;20419;-49
2022/10/05 05:56:40;;;;;;;9.03;4.70;;;11.80;99.90;;;;;;5269265;28;20425;-47
2022/10/05 05:59:27;;;;;;;14.83;4.73;;;11.70;99.90;;;;;;5284234;28;20497;-50
2022/10/05 06:02:12;;;;;;;17.20;6.43;;;11.80;99.90;;;;;;5262363;28;20794;-47
2022/10/05 06:04:49;;;;;;;6.30;5.70;;;11.90;99.90;;;;;;5254533;28;20446;-47
2022/10/05 06:07:25;;;;;;;9.40;6.40;;;11.90;99.90;;;;;;5272007;28;20466;-47
2022/10/05 06:10:03;;;;;;;6.70;4.83;;;12.00;99.90;;;;;;5287665;28;20454;-47
2022/10/05 06:12:40;;;;;;;5.40;4.30;;;12.00;99.90;;;;;;5286995;28;20426;-48
2022/10/05 06:15:16;;;;;;;9.93;5.27;;;12.10;99.90;;;;;;5283455;28;20435;-47
2022/10/05 06:17:51;;;;;;;6.70;3.77;;;12.20;99.90;;;;;;5268021;28;20431;-47
2022/10/05 06:20:48;;;;;;;15.83;3.47;;;12.20;99.90;;;;;;5266230;28;20430;-48
2022/10/05 06:23:29;;;;;;;9.17;3.73;;;12.30;99.90;;;;;;5250830;28;20423;-47
2022/10/05 06:26:18;;;;;;;10.27;4.43;;;12.40;99.90;;;;;;5280072;28;20957;-47
2022/10/05 06:29:01;;;;;;;8.40;3.67;;;12.40;99.90;;;;;;5289743;28;20422;-47
2022/10/05 06:32:20;;;;;;;7.47;4.03;;;12.40;99.90;;;;;;5271600;28;20492;-50
2022/10/05 06:35:11;;;;;;;7.20;3.50;;;12.50;99.90;;;;;;5236788;28;20423;-48
2022/10/05 06:37:51;;;;;;;4.20;3.77;;;12.70;99.90;;;;;;5283962;28;20438;-48
2022/10/05 06:40:33;;;;;;;7.47;3.23;;;13.00;99.90;;;;;;5269744;28;20493;-49
2022/10/05 06:43:29;;;;;;;3.67;3.43;;;13.30;99.90;;;;;;5281428;28;20445;-49
2022/10/05 06:46:10;;;;;;;5.87;3.57;;;13.20;99.90;;;;;;5283114;28;20463;-49
2022/10/05 06:48:55;;;;;;;5.60;3.30;;;13.20;99.90;;;;;;5293001;28;20499;-47
2022/10/05 06:51:40;;;;;;;13.33;4.10;;;13.20;99.90;;;;;;5274815;28;20446;-48
2022/10/05 06:54:50;;;;;;;4.33;3.60;;;13.30;99.90;;;;;;5286790;27;20520;-48
2022/10/05 06:57:39;;;;;;;4.10;3.43;;;13.30;99.90;;;;;;5285988;27;20520;-50
2022/10/05 07:00:19;;;;;;;3.57;2.90;;;13.60;99.90;;;;;;5270184;28;20459;-47
2022/10/05 07:02:57;;;;;;;4.77;3.60;;;13.80;99.90;;;;;;5290907;27;20427;-48
2022/10/05 07:05:51;;;;;;;12.03;8.63;;;13.90;99.90;;;;;;5278452;28;20429;-48
2022/10/05 07:09:02;;;;;;;9.63;5.70;;;14.00;99.90;;;;;;5288249;28;20464;-51
2022/10/05 07:11:32;;;;;;;10.03;5.40;;;13.90;99.90;;;;;;5269326;28;20443;-45
2022/10/05 07:14:31;;;;;;;12.93;6.70;;;14.00;99.90;;;;;;5282967;28;20495;-47
2022/10/05 07:17:44;;;;;;;9.73;7.53;;;14.00;99.90;;;;;;5282456;28;20238;-51
2022/10/05 07:20:35;;;;;;;6.37;5.40;;;14.40;99.90;;;;;;5263727;28;20446;-51
2022/10/05 07:23:23;;;;;;;6.83;3.70;;;14.90;99.90;;;;;;5290365;28;20422;-51
2022/10/05 07:26:24;;;;;;;3.77;3.40;;;14.80;99.90;;;;;;5285752;27;20462;-49
2022/10/05 07:29:13;;;;;;;3.47;3.27;;;14.70;99.90;;;;;;5274489;28;20533;-51
2022/10/05 07:32:05;;;;;;;3.90;3.57;;;14.80;99.90;;;;;;5287293;27;20533;-50
2022/10/05 07:35:00;;;;;;;5.13;3.40;;;15.60;99.90;;;;;;5282554;28;20484;-51
2022/10/05 07:37:56;;;;;;;4.20;3.53;;;16.60;99.90;;;;;;5287566;28;20430;-50
2022/10/05 07:40:51;;;;;;;4.10;2.93;;;17.00;99.90;;;;;;5284052;28;20462;-51
2022/10/05 07:43:54;;;;;;;6.43;4.80;;;17.10;99.90;;;;;;5287501;28;20434;-51
2022/10/05 07:46:37;;;;;;;3.30;3.00;;;17.00;99.90;;;;;;5262264;28;20446;-51
2022/10/05 07:49:16;;;;;;;7.10;4.07;;;17.00;99.90;;;;;;5260970;28;20439;-51
2022/10/05 07:52:01;;;;;;;3.23;3.00;;;17.00;99.90;;;;;;5288134;27;20473;-50
2022/10/05 07:54:46;;;;;;;6.33;3.90;;;17.10;99.90;;;;;;5278108;28;20430;-51
2022/10/05 07:57:35;;;;;;;4.00;3.60;;;17.00;99.90;;;;;;5271769;28;20861;-51
2022/10/05 08:00:19;;;;;;;7.97;3.93;;;16.80;99.90;;;;;;5287838;27;20467;-51
2022/10/05 08:03:03;;;;;;;4.80;3.60;;;16.60;99.90;;;;;;5282567;27;20849;-51
2022/10/05 08:05:39;;;;;;;5.00;3.80;;;16.60;99.90;;;;;;5272745;28;21077;-53
2022/10/05 08:08:10;;;;;;;9.83;2.53;;;16.50;99.90;;;;;;5278802;28;20424;-51
2022/10/05 08:10:50;;;;;;;4.43;2.40;;;16.50;99.90;;;;;;5282725;28;20442;-51
2022/10/05 08:13:38;;;;;;;5.50;2.83;;;16.50;99.90;;;;;;5280670;27;20191;-49
2022/10/05 08:16:13;;;;;;;3.33;3.03;;;16.60;99.90;;;;;;5278508;28;20432;-50
2022/10/05 08:19:07;;;;;;;6.40;2.63;;;16.40;99.90;;;;;;5273028;28;21062;-51
2022/10/05 08:21:43;;;;;;;2.40;2.30;;;16.40;99.90;;;;;;5288000;28;20462;-50
2022/10/05 08:24:38;;;;;;;2.93;2.73;;;16.30;99.90;;;;;;5285637;27;20431;-50
2022/10/05 08:27:09;;;;;;;2.53;2.33;;;16.30;99.90;;;;;;5281071;28;21066;-51
2022/10/05 08:29:55;;;;;;;7.70;2.57;;;16.60;99.90;;;;;;5272897;27;20502;-50
2022/10/05 08:32:32;;;;;;;3.60;2.33;;;16.60;99.90;;;;;;5283465;28;20173;-48
2022/10/05 08:35:12;;;;;;;2.50;2.30;;;16.80;99.90;;;;;;5279773;28;20840;-51
2022/10/05 08:37:44;;;;;;;4.90;2.50;;;16.80;99.90;;;;;;5271576;28;20984;-50
2022/10/05 08:40:17;;;;;;;4.63;2.10;;;16.80;99.90;;;;;;5271630;28;20602;-52
2022/10/05 08:43:22;;;;;;;2.77;1.93;;;16.70;99.90;;;;;;5288491;28;20479;-53
2022/10/05 08:45:59;;;;;;;3.93;3.10;;;16.60;99.90;;;;;;5266872;28;20458;-50
2022/10/05 08:48:51;;;;;;;10.00;2.40;;;16.50;99.90;;;;;;5285133;27;20919;-51
2022/10/05 08:51:36;;;;;;;2.67;2.47;;;16.60;99.90;;;;;;5268251;28;20541;-49
2022/10/05 08:54:34;;;;;;;5.97;2.83;;;16.90;99.90;;;;;;5266772;27;20465;-50
2022/10/05 08:57:26;;;;;;;3.70;2.40;;;17.20;99.90;;;;;;5274474;28;20441;-51
2022/10/05 09:00:23;;;;;;;2.93;2.73;;;17.30;99.90;;;;;;5280879;28;20764;-51
2022/10/05 09:03:14;;;;;;;4.37;2.47;;;17.50;99.90;;;;;;5279659;28;20411;-51
2022/10/05 09:06:46;;;;;;;8.20;2.53;;;17.50;99.90;;;;;;5257580;28;20422;-49
2022/10/05 09:09:41;;;;;;;2.70;2.07;;;17.30;99.90;;;;;;5252230;27;20568;-50
2022/10/05 09:12:48;;;;;;;8.43;2.70;;;17.30;99.90;;;;;;5286172;28;20807;-51
2022/10/05 09:15:50;;;;;;;12.13;2.87;;;17.40;99.90;;;;;;5285869;27;20937;-51
2022/10/05 09:18:42;;;;;;;6.07;2.40;;;17.60;99.50;;;;;;5288689;28;21057;-52
2022/10/05 09:21:30;;;;;;;8.20;2.40;;;17.50;99.80;;;;;;5288200;27;20810;-52
2022/10/05 09:24:13;;;;;;;7.27;3.07;;;17.50;99.90;;;;;;5288710;27;20859;-50
2022/10/05 09:27:16;;;;;;;7.20;3.30;;;17.50;99.70;;;;;;5270804;28;20454;-49
2022/10/05 09:30:17;;;;;;;2.90;2.43;;;17.40;99.90;;;;;;5286833;28;20415;-50
2022/10/05 09:33:06;;;;;;;3.43;2.60;;;17.40;99.90;;;;;;5267069;28;20790;-50
2022/10/05 09:36:10;;;;;;;2.27;2.17;;;17.40;99.90;;;;;;5263890;28;20415;-49
2022/10/05 09:39:07;;;;;;;2.77;2.53;;;17.20;99.90;;;;;;5255954;28;20535;-51
2022/10/05 09:41:55;;;;;;;3.07;2.17;;;17.10;99.90;;;;;;5271158;28;20459;-50
2022/10/05 09:45:03;;;;;;;4.83;3.73;;;17.20;99.90;;;;;;5288526;28;20501;-48
2022/10/05 09:48:11;;;;;;;2.70;2.50;;;17.30;99.90;;;;;;5267891;28;20999;-51
2022/10/05 09:50:59;;;;;;;10.23;2.80;;;17.40;99.90;;;;;;5267176;28;20481;-51
2022/10/05 09:54:02;;;;;;;10.97;2.50;;;17.50;99.90;;;;;;5263764;28;20450;-49
2022/10/05 09:56:50;;;;;;;2.90;2.70;;;17.80;99.90;;;;;;5275499;28;20458;-49
2022/10/05 09:59:45;;;;;;;3.57;2.93;;;17.90;99.60;;;;;;5267714;28;20487;-49
2022/10/05 10:02:38;;;;;;;3.83;3.40;;;17.90;99.60;;;;;;5288116;28;20431;-49
2022/10/05 10:05:40;;;;;;;3.80;2.90;;;18.00;99.10;;;;;;5275815;28;20437;-49
2022/10/05 10:08:20;;;;;;;2.83;2.50;;;17.80;98.90;;;;;;5284537;28;20467;-51
2022/10/05 10:11:03;;;;;;;8.80;3.00;;;17.80;98.90;;;;;;5282955;28;20966;-50
2022/10/05 10:13:54;;;;;;;5.80;3.73;;;17.70;99.00;;;;;;5286952;28;20946;-50
2022/10/05 10:16:32;;;;;;;2.97;2.70;;;17.60;99.40;;;;;;5280566;28;20415;-49
2022/10/05 10:19:40;;;;;;;2.97;2.73;;;17.50;99.80;;;;;;5280365;27;20420;-50
2022/10/05 10:22:25;;;;;;;5.43;3.03;;;17.30;99.90;;;;;;5255978;28;20455;-49
2022/10/05 10:25:33;;;;;;;3.93;3.10;;;17.00;99.90;;;;;;5286218;28;20454;-50
2022/10/05 10:28:45;;;;;;;3.50;2.63;;;17.00;99.90;;;;;;5267407;28;20981;-50
2022/10/05 10:31:34;;;;;;;3.73;3.33;;;16.80;99.90;;;;;;5249015;28;20469;-50
2022/10/05 10:34:38;;;;;;;6.60;3.30;;;16.80;99.90;;;;;;5266860;28;20432;-50
2022/10/05 10:37:47;;;;;;;4.77;3.87;;;16.80;99.90;;;;;;5266852;28;20419;-49
2022/10/05 10:40:24;;;;;;;9.53;3.97;;;16.90;99.90;;;;;;5253258;28;20459;-50
2022/10/05 10:43:18;;;;;;;6.67;3.43;;;16.90;99.90;;;;;;5263347;28;20850;-51
2022/10/05 10:45:58;;;;;;;7.27;3.60;;;16.90;99.90;;;;;;5272412;28;20566;-49
2022/10/05 10:48:39;;;;;;;6.07;3.03;;;16.90;99.90;;;;;;5285545;28;21179;-50
2022/10/05 10:51:18;;;;;;;2.80;2.70;;;16.90;99.90;;;;;;5287424;28;20435;-50
2022/10/05 10:54:18;;;;;;;12.40;7.40;;;16.90;99.90;;;;;;5278564;28;20414;-50
2022/10/05 10:57:04;;;;;;;5.57;3.63;;;17.00;99.90;;;;;;5263277;28;20470;-49
2022/10/05 10:59:56;;;;;;;4.97;3.57;;;17.00;99.90;;;;;;5263673;28;20430;-51
2022/10/05 11:02:57;;;;;;;4.17;2.97;;;17.00;99.90;;;;;;5275626;28;20452;-51
2022/10/05 11:05:37;;;;;;;11.37;4.30;;;17.10;99.90;;;;;;5256383;28;20438;-50
2022/10/05 11:08:30;;;;;;;10.77;3.90;;;17.10;99.90;;;;;;5286514;28;20945;-50
2022/10/05 11:11:18;;;;;;;11.97;5.60;;;17.10;99.90;;;;;;5265517;28;20462;-51
2022/10/05 11:14:24;;;;;;;6.90;3.83;;;17.20;99.90;;;;;;5275779;28;20419;-50
2022/10/05 11:17:14;;;;;;;11.00;4.90;;;17.30;99.90;;;;;;5284742;28;20434;-50
2022/10/05 11:19:51;;;;;;;11.30;5.07;;;17.60;99.90;;;;;;5277908;28;20469;-50
2022/10/05 11:22:59;;;;;;;7.33;3.90;;;18.00;99.90;;;;;;5277811;28;20427;-50
2022/10/05 11:25:54;;;;;;;4.33;3.83;;;18.00;99.90;;;;;;5267324;28;21273;-50
2022/10/05 11:28:37;;;;;;;6.53;3.27;;;18.20;99.90;;;;;;5283132;28;20912;-49
2022/10/05 11:31:48;;;;;;;3.63;3.33;;;18.50;99.90;;;;;;5272073;28;20902;-51
2022/10/05 11:34:55;;;;;;;7.03;4.03;;;18.70;99.90;;;;;;5271696;28;20519;-49
2022/10/05 11:37:53;;;;;;;3.47;2.97;;;19.10;99.90;;;;;;5270423;28;20434;-48
2022/10/05 11:41:01;;;;;;;4.60;3.00;;;19.50;99.90;;;;;;5285921;27;20455;-49
2022/10/05 11:43:55;;;;;;;9.33;3.43;;;19.70;99.90;;;;;;5254637;28;20447;-50
2022/10/05 11:46:59;;;;;;;3.50;3.30;;;19.80;99.40;;;;;;5281537;27;20462;-49
2022/10/05 11:49:38;;;;;;;7.33;3.73;;;19.80;99.10;;;;;;5287600;27;20434;-52
2022/10/05 11:52:20;;;;;;;6.43;3.77;;;19.80;99.20;;;;;;5285603;28;20451;-50
2022/10/05 11:55:13;;;;;;;2.87;2.77;;;19.60;98.90;;;;;;5268618;28;20442;-50
2022/10/05 11:57:48;;;;;;;4.63;3.03;;;19.60;99.20;;;;;;5287527;27;20440;-50
2022/10/05 12:00:22;;;;;;;6.63;4.30;;;19.50;99.30;;;;;;5278445;28;20529;-49
2022/10/05 12:02:58;;;;;;;6.63;4.03;;;19.40;99.80;;;;;;5276465;28;20461;-50
2022/10/05 12:05:49;;;;;;;7.07;3.67;;;19.40;99.90;;;;;;5276119;27;20964;-49
2022/10/05 12:08:40;;;;;;;3.73;3.17;;;19.40;99.90;;;;;;5289535;27;20582;-50
2022/10/05 12:11:29;;;;;;;4.33;3.00;;;19.60;99.90;;;;;;5265087;28;20448;-50
2022/10/05 12:14:11;;;;;;;8.60;3.77;;;19.70;99.90;;;;;;5279481;28;20447;-50
2022/10/05 12:16:45;;;;;;;2.80;2.63;;;19.70;99.90;;;;;;5283856;27;20426;-51
2022/10/05 12:19:28;;;;;;;8.50;3.43;;;19.80;99.70;;;;;;5269479;28;20455;-50
2022/10/05 12:22:20;;;;;;;3.50;3.27;;;19.80;99.40;;;;;;5277465;27;20443;-49
2022/10/05 12:25:15;;;;;;;3.60;3.03;;;19.80;98.90;;;;;;5289938;28;20500;-51
2022/10/05 12:27:50;;;;;;;4.90;3.13;;;19.90;99.10;;;;;;5271396;28;20500;-51
2022/10/05 12:30:27;;;;;;;3.07;2.70;;;20.00;99.00;;;;;;5262046;28;20434;-50
2022/10/05 12:33:14;;;;;;;5.53;3.10;;;20.10;98.40;;;;;;5252845;28;20424;-50
2022/10/05 12:36:11;;;;;;;5.50;3.37;;;20.10;98.40;;;;;;5287856;27;20938;-53
2022/10/05 12:38:45;;;;;;;2.30;2.20;;;20.10;97.90;;;;;;5282438;27;20434;-51
2022/10/05 12:41:44;;;;;;;3.77;3.37;;;20.00;98.10;;;;;;5269113;28;20458;-50
2022/10/05 12:44:38;;;;;;;6.97;3.23;;;19.90;98.10;;;;;;5287511;27;20934;-50
2022/10/05 12:47:22;;;;;;;4.30;2.77;;;19.80;98.60;;;;;;5225355;28;20467;-50
2022/10/05 12:50:35;;;;;;;4.20;2.47;;;19.70;98.70;;;;;;5289078;28;20442;-48
2022/10/05 12:53:36;;;;;;;16.17;2.37;;;19.70;98.60;;;;;;5237414;28;21487;-49
2022/10/05 12:56:13;;;;;;;4.10;2.20;;;19.70;96.80;;;;;;5281029;28;21015;-48
2022/10/05 12:59:03;;;;;;;5.23;3.13;;;19.80;95.80;;;;;;5283398;28;20503;-49
2022/10/05 13:01:39;;;;;;;8.70;3.17;;;19.60;96.00;;;;;;5281733;28;20530;-50
2022/10/05 13:04:16;;;;;;;4.10;2.93;;;19.50;95.90;;;;;;5283353;28;20431;-49
2022/10/05 13:07:04;;;;;;;3.30;2.30;;;19.40;95.90;;;;;;5286810;28;20466;-49
2022/10/05 13:09:46;;;;;;;2.67;2.50;;;19.40;95.20;;;;;;5271618;28;20422;-49
2022/10/05 13:12:44;;;;;;;2.23;2.13;;;19.40;95.40;;;;;;5289595;28;20415;-51
2022/10/05 13:15:29;;;;;;;3.80;2.63;;;19.30;95.50;;;;;;5271233;28;20407;-50
2022/10/05 13:18:31;;;;;;;2.70;2.50;;;19.30;95.60;;;;;;5267954;28;20433;-50
2022/10/05 13:21:25;;;;;;;2.80;1.60;;;19.30;95.40;;;;;;5269734;28;20443;-49
2022/10/05 13:24:20;;;;;;;5.10;3.00;;;19.30;95.40;;;;;;5261602;28;20832;-50
2022/10/05 13:27:04;;;;;;;4.70;3.63;;;19.40;95.40;;;;;;5278839;28;20470;-50
2022/10/05 13:29:38;;;;;;;4.43;3.93;;;19.40;95.40;;;;;;5292663;28;20923;-50
2022/10/05 13:32:26;;;;;;;7.47;3.53;;;19.40;95.50;;;;;;5272792;28;20460;-49
2022/10/05 13:35:05;;;;;;;21.93;7.20;;;19.40;95.70;;;;;;5267865;28;20515;-50
2022/10/05 13:38:06;;;;;;;8.20;2.87;;;19.50;95.40;;;;;;5284635;28;20459;-50
2022/10/05 13:40:58;;;;;;;2.40;2.30;;;19.50;95.20;;;;;;5287592;28;20538;-50
2022/10/05 13:43:52;;;;;;;3.37;2.60;;;19.60;94.80;;;;;;5281565;28;20435;-49
2022/10/05 13:46:36;;;;;;;2.70;2.50;;;19.60;94.40;;;;;;5263404;28;21056;-49
2022/10/05 13:49:20;;;;;;;6.17;2.23;;;19.80;93.90;;;;;;5266285;28;20459;-50
2022/10/05 13:52:21;;;;;;;4.20;2.90;;;19.70;93.80;;;;;;5268915;28;20518;-50
2022/10/05 13:55:15;;;;;;;5.20;3.00;;;19.80;93.80;;;;;;5276920;28;20775;-50
2022/10/05 13:58:04;;;;;;;5.20;2.10;;;19.90;93.60;;;;;;5283628;27;20420;-50
2022/10/05 14:01:04;;;;;;;4.47;2.13;;;19.80;93.30;;;;;;5286390;28;20434;-49
2022/10/05 14:03:37;;;;;;;5.23;3.17;;;19.90;93.00;;;;;;5285197;28;20506;-49
2022/10/05 14:06:28;;;;;;;6.47;2.50;;;20.20;92.90;;;;;;5261052;28;20462;-48
2022/10/05 14:08:59;;;;;;;3.33;2.37;;;20.40;91.80;;;;;;5269648;28;20442;-49
2022/10/05 14:11:35;;;;;;;3.90;3.13;;;20.60;91.30;;;;;;5288154;28;20454;-48
2022/10/05 14:14:49;;;;;;;12.47;2.40;;;20.40;91.20;;;;;;5283108;28;20207;-50
2022/10/05 14:17:32;;;;;;;2.40;1.70;;;20.20;90.80;;;;;;5228905;28;20482;-50
2022/10/05 14:20:18;;;;;;;2.43;1.93;;;20.20;91.00;;;;;;5270338;28;20521;-50
2022/10/05 14:23:01;;;;;;;3.77;2.10;;;20.10;89.90;;;;;;5285918;28;20553;-50
2022/10/05 14:25:49;;;;;;;4.30;2.70;;;20.00;90.40;;;;;;5280885;28;20438;-50
2022/10/05 14:28:28;;;;;;;1.70;1.60;;;20.10;90.20;;;;;;5283557;28;20423;-50
2022/10/05 14:31:09;;;;;;;2.97;2.73;;;20.20;89.70;;;;;;5263124;28;20461;-51